createdAt,value
2022-12-27T00:01:18.772Z,2.88
2022-12-27T00:03:46.061Z,2.92
2022-12-27T00:06:16.599Z,2.92
2022-12-27T00:08:44.613Z,3.33
2022-12-27T00:11:17.672Z,2.95
2022-12-27T00:13:45.052Z,2.95
2022-12-27T00:16:15.847Z,3.18
2022-12-27T00:18:43.124Z,3.22
2022-12-27T00:21:13.762Z,2.88
2022-12-27T00:23:43.949Z,3.09
2022-12-27T00:26:19.396Z,3.11
2022-12-27T00:28:46.616Z,2.77
2022-12-27T00:31:14.089Z,3.03
2022-12-27T00:33:42.573Z,2.66
2022-12-27T00:36:12.764Z,2.72
2022-12-27T00:38:40.337Z,2.90
2022-12-27T00:41:07.474Z,2.86
2022-12-27T00:43:34.662Z,2.57
2022-12-27T00:46:02.097Z,2.45
2022-12-27T00:48:29.359Z,2.96
2022-12-27T00:51:01.916Z,3.02
2022-12-27T00:53:29.906Z,2.82
2022-12-27T00:55:57.170Z,2.60
2022-12-27T00:58:24.182Z,3.12
2022-12-27T01:00:51.188Z,3.09
2022-12-27T01:03:18.635Z,2.24
2022-12-27T01:05:46.143Z,3.08
2022-12-27T01:08:12.866Z,2.66
2022-12-27T01:10:40.998Z,2.90
2022-12-27T01:13:07.546Z,2.98
2022-12-27T01:15:34.086Z,2.88
2022-12-27T01:18:01.152Z,2.31
2022-12-27T01:20:27.656Z,2.93
2022-12-27T01:22:54.802Z,2.88
2022-12-27T01:25:21.454Z,2.67
2022-12-27T01:27:47.983Z,3.02
2022-12-27T01:30:14.528Z,2.56
2022-12-27T01:32:41.076Z,3.15
2022-12-27T01:35:08.008Z,2.97
2022-12-27T01:37:34.520Z,3.03
2022-12-27T01:40:01.193Z,2.94
2022-12-27T01:42:46.326Z,3.23
2022-12-27T01:45:18.923Z,2.95
2022-12-27T01:47:48.906Z,3.25
2022-12-27T01:50:38.895Z,3.18
2022-12-27T01:53:10.326Z,3.02
2022-12-27T01:55:39.918Z,3.13
2022-12-27T01:58:16.998Z,3.13
2022-12-27T02:00:46.079Z,3.16
2022-12-27T02:03:20.048Z,2.57
2022-12-27T02:05:46.749Z,3.15
2022-12-27T02:08:22.247Z,3.26
2022-12-27T02:10:50.513Z,3.32
2022-12-27T02:13:18.423Z,3.16
2022-12-27T02:15:44.930Z,3.41
2022-12-27T02:18:11.473Z,3.59
2022-12-27T02:21:16.856Z,3.76
2022-12-27T02:24:15.657Z,3.89
2022-12-27T02:26:51.193Z,3.85
2022-12-27T02:29:55.306Z,3.85
2022-12-27T02:32:34.490Z,3.86
2022-12-27T02:35:21.596Z,3.75
2022-12-27T02:37:54.757Z,3.56
2022-12-27T02:40:43.067Z,3.55
2022-12-27T02:43:29.297Z,3.70
2022-12-27T02:46:24.725Z,3.97
2022-12-27T02:49:19.911Z,3.80
2022-12-27T02:53:03.952Z,4.23
2022-12-27T02:55:36.424Z,4.39
2022-12-27T02:58:27.988Z,4.42
2022-12-27T03:01:47.931Z,4.30
2022-12-27T03:04:38.754Z,4.46
2022-12-27T03:07:42.103Z,4.44
2022-12-27T03:10:34.387Z,4.50
2022-12-27T03:13:53.125Z,4.52
2022-12-27T03:16:25.987Z,4.53
2022-12-27T03:19:05.528Z,4.40
2022-12-27T03:21:55.926Z,4.21
2022-12-27T03:24:46.684Z,4.09
2022-12-27T03:27:22.539Z,3.81
2022-12-27T03:30:11.820Z,3.68
2022-12-27T03:33:04.451Z,3.53
2022-12-27T03:35:38.671Z,3.65
2022-12-27T03:38:09.299Z,3.31
2022-12-27T03:41:18.608Z,3.19
2022-12-27T03:43:45.373Z,3.21
2022-12-27T03:46:35.125Z,3.01
2022-12-27T03:49:39.363Z,3.10
2022-12-27T03:52:21.494Z,2.99
2022-12-27T03:54:50.929Z,2.99
2022-12-27T03:57:20.970Z,2.44
2022-12-27T03:59:47.772Z,2.88
2022-12-27T04:02:14.793Z,2.83
2022-12-27T04:04:41.563Z,2.76
2022-12-27T04:07:08.177Z,2.94
2022-12-27T04:09:53.231Z,2.32
2022-12-27T04:12:38.537Z,2.86
2022-12-27T04:15:23.962Z,2.38
2022-12-27T04:18:08.869Z,2.76
2022-12-27T04:20:55.039Z,2.48
2022-12-27T04:23:40.309Z,2.51
2022-12-27T04:26:25.947Z,2.60
2022-12-27T04:29:11.044Z,2.94
2022-12-27T04:31:56.213Z,2.77
2022-12-27T04:34:41.297Z,2.53
2022-12-27T04:37:09.325Z,2.86
2022-12-27T04:39:35.830Z,2.47
2022-12-27T04:42:21.150Z,2.82
2022-12-27T04:45:11.629Z,2.96
2022-12-27T04:48:31.715Z,3.22
2022-12-27T04:51:17.757Z,3.26
2022-12-27T04:54:02.952Z,3.21
2022-12-27T04:56:29.505Z,3.14
2022-12-27T04:59:14.719Z,3.23
2022-12-27T05:01:59.941Z,3.37
2022-12-27T05:04:26.931Z,3.10
2022-12-27T05:06:53.708Z,3.40
2022-12-27T05:09:38.903Z,3.48
2022-12-27T05:12:24.764Z,3.41
2022-12-27T05:14:51.297Z,3.39
2022-12-27T05:17:17.808Z,3.27
2022-12-27T05:19:45.199Z,3.48
2022-12-27T05:22:30.387Z,3.31
2022-12-27T05:25:15.285Z,3.15
2022-12-27T05:27:41.835Z,3.44
2022-12-27T05:30:08.943Z,3.49
2022-12-27T05:32:35.427Z,3.51
2022-12-27T05:35:01.941Z,3.60
2022-12-27T05:37:28.412Z,3.01
2022-12-27T05:39:54.871Z,3.45
2022-12-27T05:42:21.376Z,3.53
2022-12-27T05:44:47.886Z,3.46
2022-12-27T05:47:14.364Z,3.13
2022-12-27T05:49:40.905Z,3.34
2022-12-27T05:52:07.374Z,3.32
2022-12-27T05:54:33.856Z,3.23
2022-12-27T05:57:00.372Z,2.90
2022-12-27T05:59:26.904Z,3.20
2022-12-27T06:01:53.509Z,3.16
2022-12-27T06:04:20.088Z,3.18
2022-12-27T06:06:46.587Z,3.19
2022-12-27T06:09:14.011Z,2.66
2022-12-27T06:11:40.480Z,3.40
2022-12-27T06:14:06.951Z,3.39
2022-12-27T06:16:33.446Z,3.39
2022-12-27T06:19:00.034Z,3.39
2022-12-27T06:21:26.538Z,3.40
2022-12-27T06:23:53.012Z,3.34
2022-12-27T06:26:22.908Z,2.99
2022-12-27T06:28:50.128Z,3.38
2022-12-27T06:31:18.682Z,3.32
2022-12-27T06:33:46.228Z,3.43
2022-12-27T06:36:15.414Z,3.45
2022-12-27T06:38:42.572Z,3.38
2022-12-27T06:41:11.396Z,3.33
2022-12-27T06:43:38.132Z,3.38
2022-12-27T06:46:11.233Z,3.17
2022-12-27T06:48:40.604Z,3.14
2022-12-27T06:51:09.362Z,3.23
2022-12-27T06:53:36.482Z,3.28
2022-12-27T06:56:04.869Z,2.71
2022-12-27T06:58:31.329Z,3.32
2022-12-27T07:00:57.898Z,3.11
2022-12-27T07:03:24.471Z,3.05
2022-12-27T07:05:50.954Z,2.95
2022-12-27T07:08:17.414Z,2.37
2022-12-27T07:10:43.920Z,2.38
2022-12-27T07:13:10.378Z,3.05
2022-12-27T07:15:38.554Z,3.16
2022-12-27T07:18:05.050Z,3.00
2022-12-27T07:20:31.612Z,3.19
2022-12-27T07:23:00.017Z,2.92
2022-12-27T07:25:27.619Z,3.33
2022-12-27T07:27:54.520Z,2.72
2022-12-27T07:30:21.015Z,3.14
2022-12-27T07:32:47.539Z,3.29
2022-12-27T07:35:14.263Z,3.12
2022-12-27T07:37:40.756Z,2.88
2022-12-27T07:40:07.913Z,3.33
2022-12-27T07:42:34.571Z,3.20
2022-12-27T07:45:01.046Z,3.41
2022-12-27T07:47:28.147Z,3.35
2022-12-27T07:49:54.867Z,2.66
2022-12-27T07:52:21.371Z,3.30
2022-12-27T07:54:47.826Z,2.61
2022-12-27T07:57:14.317Z,3.12
2022-12-27T07:59:40.804Z,2.67
2022-12-27T08:02:09.527Z,2.49
2022-12-27T08:04:38.210Z,3.34
2022-12-27T08:07:16.724Z,3.42
2022-12-27T08:09:46.145Z,3.13
2022-12-27T08:12:13.608Z,3.28
2022-12-27T08:14:40.670Z,3.33
2022-12-27T08:17:20.233Z,3.41
2022-12-27T08:19:47.099Z,2.78
2022-12-27T08:22:13.984Z,3.00
2022-12-27T08:24:41.521Z,3.38
2022-12-27T08:27:09.767Z,3.54
2022-12-27T08:29:36.538Z,3.14
2022-12-27T08:32:03.803Z,3.20
2022-12-27T08:34:30.313Z,3.07
2022-12-27T08:36:57.015Z,3.91
2022-12-27T08:39:24.327Z,3.47
2022-12-27T08:41:53.914Z,4.06
2022-12-27T08:44:20.570Z,4.32
2022-12-27T08:46:47.368Z,3.52
2022-12-27T08:49:13.894Z,4.46
2022-12-27T08:51:41.603Z,4.58
2022-12-27T08:54:09.693Z,4.47
2022-12-27T08:56:36.217Z,4.70
2022-12-27T08:59:03.579Z,4.75
2022-12-27T09:01:30.155Z,4.86
2022-12-27T09:03:56.745Z,4.58
2022-12-27T09:06:24.717Z,4.67
2022-12-27T09:08:54.501Z,4.54
2022-12-27T09:11:24.837Z,4.71
2022-12-27T09:13:51.957Z,5.36
2022-12-27T09:16:24.407Z,5.12
2022-12-27T09:18:53.180Z,5.16
2022-12-27T09:21:21.943Z,5.63
2022-12-27T09:23:49.405Z,6.01
2022-12-27T09:26:18.637Z,6.21
2022-12-27T09:28:46.676Z,6.64
2022-12-27T09:31:14.573Z,6.65
2022-12-27T09:33:41.214Z,6.72
2022-12-27T09:36:14.010Z,7.22
2022-12-27T09:38:41.836Z,7.76
2022-12-27T09:42:26.020Z,7.98
2022-12-27T09:44:38.791Z,8.38
2022-12-27T09:47:20.403Z,8.56
2022-12-27T09:49:52.542Z,7.99
2022-12-27T09:52:23.113Z,8.28
2022-12-27T09:55:08.006Z,8.23
2022-12-27T09:57:38.730Z,7.61
2022-12-27T10:00:14.699Z,8.45
2022-12-27T10:02:44.452Z,8.45
2022-12-27T10:05:22.056Z,8.56
2022-12-27T10:08:07.434Z,8.66
2022-12-27T10:11:32.854Z,8.98
2022-12-27T10:14:09.180Z,9.58
2022-12-27T10:16:42.445Z,9.90
2022-12-27T10:19:44.799Z,10.32
2022-12-27T10:22:30.662Z,10.79
2022-12-27T10:25:00.133Z,10.36
2022-12-27T10:27:29.198Z,10.09
2022-12-27T10:30:00.005Z,9.50
2022-12-27T10:32:27.225Z,9.92
2022-12-27T10:35:01.198Z,10.03
2022-12-27T10:37:28.528Z,9.90
2022-12-27T10:40:01.399Z,10.71
2022-12-27T10:42:37.217Z,11.36
2022-12-27T10:45:32.342Z,12.13
2022-12-27T10:48:21.788Z,12.51
2022-12-27T10:51:20.696Z,12.94
2022-12-27T10:53:47.234Z,13.19
2022-12-27T10:56:26.731Z,12.79
2022-12-27T10:59:04.522Z,13.11
2022-12-27T11:01:32.582Z,12.81
2022-12-27T11:04:19.434Z,13.61
2022-12-27T11:06:49.721Z,13.81
2022-12-27T11:09:31.959Z,13.68
2022-12-27T11:12:21.685Z,14.14
2022-12-27T11:15:18.586Z,14.25
2022-12-27T11:17:48.662Z,13.72
2022-12-27T11:20:20.432Z,13.88
2022-12-27T11:22:53.896Z,13.96
2022-12-27T11:25:21.343Z,13.68
2022-12-27T11:27:51.799Z,13.86
2022-12-27T11:30:47.566Z,14.76
2022-12-27T11:33:24.642Z,14.62
2022-12-27T11:35:55.561Z,15.12
2022-12-27T11:38:31.183Z,14.18
2022-12-27T11:41:15.292Z,11.89
2022-12-27T11:43:54.249Z,11.72
2022-12-27T11:46:28.855Z,12.72
2022-12-27T11:48:58.759Z,13.83
2022-12-27T11:51:29.922Z,14.54
2022-12-27T11:54:12.287Z,13.34
2022-12-27T11:56:48.282Z,11.47
2022-12-27T11:59:27.953Z,10.55
2022-12-27T12:02:26.282Z,9.49
2022-12-27T12:05:27.669Z,9.19
2022-12-27T12:08:32.537Z,9.86
2022-12-27T12:11:12.809Z,9.71
2022-12-27T12:14:04.055Z,9.91
2022-12-27T12:16:57.118Z,9.69
2022-12-27T12:19:26.627Z,9.56
2022-12-27T12:21:55.910Z,9.49
2022-12-27T12:24:47.241Z,9.70
2022-12-27T12:27:42.659Z,9.63
2022-12-27T12:30:27.760Z,9.36
2022-12-27T12:33:12.841Z,9.33
2022-12-27T12:35:57.587Z,9.13
2022-12-27T12:38:39.590Z,8.73
2022-12-27T12:41:53.549Z,8.90
2022-12-27T12:44:46.489Z,8.83
2022-12-27T12:47:26.307Z,8.69
2022-12-27T12:50:18.282Z,9.77
2022-12-27T12:53:06.530Z,11.12
2022-12-27T12:56:04.006Z,10.80
2022-12-27T12:58:42.428Z,10.75
2022-12-27T13:01:28.778Z,10.70
2022-12-27T13:04:31.509Z,11.78
2022-12-27T13:07:15.855Z,11.63
2022-12-27T13:10:00.380Z,11.12
2022-12-27T13:12:52.884Z,10.92
2022-12-27T13:15:51.770Z,10.68
2022-12-27T13:18:35.224Z,10.30
2022-12-27T13:21:01.685Z,10.64
2022-12-27T13:23:40.883Z,11.86
2022-12-27T13:26:21.364Z,11.47
2022-12-27T13:29:10.853Z,12.29
2022-12-27T13:31:53.171Z,12.54
2022-12-27T13:35:07.165Z,13.31
2022-12-27T13:37:56.135Z,13.12
2022-12-27T13:41:04.825Z,12.25
2022-12-27T13:43:59.046Z,12.16
2022-12-27T13:46:42.111Z,11.63
2022-12-27T13:49:21.389Z,10.98
2022-12-27T13:51:50.238Z,10.54
2022-12-27T13:54:54.364Z,10.06
2022-12-27T13:57:37.761Z,9.85
2022-12-27T14:00:18.985Z,9.68
2022-12-27T14:03:14.127Z,9.58
2022-12-27T14:05:40.686Z,9.33
2022-12-27T14:08:22.282Z,9.12
2022-12-27T14:10:58.656Z,8.92
2022-12-27T14:13:36.315Z,8.87
2022-12-27T14:16:12.677Z,8.76
2022-12-27T14:19:19.136Z,8.64
2022-12-27T14:21:54.455Z,8.66
2022-12-27T14:25:05.646Z,8.55
2022-12-27T14:27:40.583Z,8.53
2022-12-27T14:30:22.308Z,8.47
2022-12-27T14:33:04.753Z,7.93
2022-12-27T14:35:59.940Z,8.33
2022-12-27T14:39:09.671Z,8.22
2022-12-27T14:41:59.960Z,8.22
2022-12-27T14:44:53.751Z,7.77
2022-12-27T14:47:44.992Z,8.05
2022-12-27T14:50:17.123Z,8.14
2022-12-27T14:53:18.561Z,7.53
2022-12-27T14:55:54.541Z,8.02
2022-12-27T14:58:55.276Z,8.00
2022-12-27T15:01:55.943Z,7.96
2022-12-27T15:04:42.184Z,8.04
2022-12-27T15:07:35.109Z,7.98
2022-12-27T15:10:17.799Z,7.88
2022-12-27T15:13:14.181Z,7.50
2022-12-27T15:16:15.901Z,7.88
2022-12-27T15:18:48.867Z,7.79
2022-12-27T15:21:24.449Z,7.78
2022-12-27T15:23:54.526Z,7.67
2022-12-27T15:26:52.816Z,7.61
2022-12-27T15:29:27.653Z,7.62
2022-12-27T15:32:14.280Z,7.51
2022-12-27T15:35:28.687Z,7.43
2022-12-27T15:38:09.382Z,6.84
2022-12-27T15:40:39.620Z,7.40
2022-12-27T15:43:30.100Z,7.32
2022-12-27T15:46:35.709Z,7.32
2022-12-27T15:49:32.275Z,7.25
2022-12-27T15:52:07.709Z,7.33
2022-12-27T15:54:50.280Z,7.25
2022-12-27T15:57:35.664Z,7.08
2022-12-27T16:00:17.500Z,7.11
2022-12-27T16:02:44.037Z,7.03
2022-12-27T16:05:13.455Z,6.93
2022-12-27T16:07:44.340Z,6.87
2022-12-27T16:10:36.074Z,6.81
2022-12-27T16:13:11.735Z,6.78
2022-12-27T16:15:53.571Z,6.28
2022-12-27T16:18:23.270Z,6.89
2022-12-27T16:21:18.919Z,6.91
2022-12-27T16:23:45.313Z,6.90
2022-12-27T16:26:26.088Z,6.85
2022-12-27T16:29:15.047Z,6.82
2022-12-27T16:31:50.057Z,6.43
2022-12-27T16:34:27.978Z,6.97
2022-12-27T16:36:57.312Z,6.51
2022-12-27T16:39:27.013Z,6.99
2022-12-27T16:41:56.700Z,6.48
2022-12-27T16:44:26.314Z,6.60
2022-12-27T16:47:17.133Z,6.78
2022-12-27T16:50:08.530Z,6.80
2022-12-27T16:53:00.793Z,6.82
2022-12-27T16:56:06.183Z,6.36
2022-12-27T16:58:36.420Z,6.53
2022-12-27T17:01:27.143Z,6.84
2022-12-27T17:03:55.151Z,6.74
2022-12-27T17:06:36.990Z,6.88
2022-12-27T17:09:09.708Z,6.87
2022-12-27T17:11:38.782Z,6.91
2022-12-27T17:14:20.901Z,6.86
2022-12-27T17:16:52.933Z,6.88
2022-12-27T17:19:56.929Z,6.82
2022-12-27T17:22:30.460Z,6.56
2022-12-27T17:25:01.106Z,6.36
2022-12-27T17:27:46.496Z,6.92
2022-12-27T17:30:19.898Z,6.87
2022-12-27T17:33:02.640Z,6.86
2022-12-27T17:35:41.244Z,6.91
2022-12-27T17:38:32.138Z,6.89
2022-12-27T17:41:11.969Z,6.94
2022-12-27T17:44:09.677Z,6.92
2022-12-27T17:46:55.519Z,6.94
2022-12-27T17:49:31.071Z,6.46
2022-12-27T17:52:17.047Z,6.87
2022-12-27T17:55:02.289Z,6.62
2022-12-27T17:57:47.657Z,6.64
2022-12-27T18:00:36.247Z,6.65
2022-12-27T18:03:08.713Z,6.52
2022-12-27T18:05:41.630Z,6.11
2022-12-27T18:08:29.965Z,6.42
2022-12-27T18:10:57.805Z,6.45
2022-12-27T18:13:26.745Z,5.88
2022-12-27T18:15:53.792Z,5.81
2022-12-27T18:18:38.827Z,6.29
2022-12-27T18:21:06.952Z,6.00
2022-12-27T18:23:41.889Z,6.47
2022-12-27T18:26:13.883Z,6.31
2022-12-27T18:28:42.075Z,5.97
2022-12-27T18:31:24.329Z,6.37
2022-12-27T18:33:54.045Z,6.00
2022-12-27T18:36:45.783Z,6.20
2022-12-27T18:39:33.909Z,6.08
2022-12-27T18:42:11.968Z,6.21
2022-12-27T18:44:47.921Z,6.10
2022-12-27T18:47:21.518Z,5.84
2022-12-27T18:49:58.159Z,6.19
2022-12-27T18:52:30.813Z,5.68
2022-12-27T18:55:05.878Z,6.20
2022-12-27T18:57:35.451Z,5.97
2022-12-27T19:00:14.982Z,6.05
2022-12-27T19:02:42.469Z,5.62
2022-12-27T19:05:13.672Z,6.09
2022-12-27T19:07:40.351Z,6.07
2022-12-27T19:10:16.992Z,5.55
2022-12-27T19:12:44.191Z,6.08
2022-12-27T19:15:21.955Z,5.91
2022-12-27T19:17:50.635Z,5.97
2022-12-27T19:20:35.768Z,5.93
2022-12-27T19:23:23.927Z,5.92
2022-12-27T19:26:16.540Z,5.93
2022-12-27T19:28:45.104Z,5.88
2022-12-27T19:31:19.657Z,5.11
2022-12-27T19:33:55.958Z,5.68
2022-12-27T19:36:27.601Z,5.70
2022-12-27T19:38:54.912Z,5.66
2022-12-27T19:41:21.502Z,5.69
2022-12-27T19:43:48.127Z,5.67
2022-12-27T19:46:15.142Z,5.54
2022-12-27T19:48:41.859Z,5.45
2022-12-27T19:51:15.597Z,5.56
2022-12-27T19:53:43.951Z,5.49
2022-12-27T19:56:11.653Z,5.42
2022-12-27T19:58:38.955Z,5.60
2022-12-27T20:01:05.484Z,5.62
2022-12-27T20:03:31.969Z,4.84
2022-12-27T20:06:12.922Z,5.39
2022-12-27T20:08:44.785Z,5.38
2022-12-27T20:11:19.380Z,5.39
2022-12-27T20:13:46.751Z,5.30
2022-12-27T20:16:16.543Z,5.48
2022-12-27T20:18:43.759Z,5.13
2022-12-27T20:21:13.159Z,5.51
2022-12-27T20:23:39.915Z,5.53
2022-12-27T20:26:06.507Z,5.34
2022-12-27T20:28:33.068Z,4.99
2022-12-27T20:31:04.946Z,5.02
2022-12-27T20:33:31.408Z,5.23
2022-12-27T20:35:58.415Z,5.55
2022-12-27T20:38:25.964Z,5.08
2022-12-27T20:40:53.170Z,4.93
2022-12-27T20:43:19.719Z,5.51
2022-12-27T20:45:46.901Z,5.46
2022-12-27T20:48:13.541Z,5.27
2022-12-27T20:50:40.820Z,4.89
2022-12-27T20:53:07.619Z,5.56
2022-12-27T20:55:34.406Z,5.53
2022-12-27T20:58:01.578Z,5.48
2022-12-27T21:00:28.079Z,5.42
2022-12-27T21:02:54.814Z,5.61
2022-12-27T21:05:21.441Z,5.40
2022-12-27T21:07:47.953Z,5.54
2022-12-27T21:10:14.932Z,5.60
2022-12-27T21:12:41.588Z,5.56
2022-12-27T21:15:09.095Z,5.14
2022-12-27T21:17:35.597Z,5.85
2022-12-27T21:20:02.246Z,5.61
2022-12-27T21:22:28.804Z,5.64
2022-12-27T21:24:55.318Z,5.77
2022-12-27T21:27:21.877Z,5.60
2022-12-27T21:29:48.485Z,5.87
2022-12-27T21:32:15.780Z,5.35
2022-12-27T21:34:42.732Z,5.45
2022-12-27T21:37:13.422Z,5.80
2022-12-27T21:39:40.567Z,5.54
2022-12-27T21:42:07.517Z,6.03
2022-12-27T21:44:36.762Z,5.95
2022-12-27T21:47:05.581Z,5.28
2022-12-27T21:49:32.211Z,5.93
2022-12-27T21:51:58.810Z,6.14
2022-12-27T21:54:25.369Z,6.12
2022-12-27T21:56:51.927Z,6.06
2022-12-27T21:59:18.663Z,5.54
2022-12-27T22:01:50.427Z,6.14
2022-12-27T22:04:21.264Z,6.21
2022-12-27T22:06:48.314Z,6.31
2022-12-27T22:09:15.538Z,6.13
2022-12-27T22:11:42.297Z,5.71
2022-12-27T22:14:08.837Z,6.18
2022-12-27T22:16:37.980Z,6.26
2022-12-27T22:19:12.622Z,6.43
2022-12-27T22:21:40.263Z,5.97
2022-12-27T22:24:07.360Z,6.46
2022-12-27T22:26:39.487Z,6.52
2022-12-27T22:29:07.677Z,6.52
2022-12-27T22:31:36.593Z,6.36
2022-12-27T22:34:04.260Z,6.65
2022-12-27T22:36:31.573Z,6.06
2022-12-27T22:38:59.530Z,6.52
2022-12-27T22:41:29.567Z,6.19
2022-12-27T22:43:58.863Z,6.49
2022-12-27T22:46:26.744Z,6.57
2022-12-27T22:48:58.969Z,6.29
2022-12-27T22:51:28.383Z,6.76
2022-12-27T22:53:56.356Z,6.73
2022-12-27T22:56:29.077Z,6.22
2022-12-27T22:58:56.438Z,6.42
2022-12-27T23:01:27.654Z,6.76
2022-12-27T23:03:58.810Z,6.25
2022-12-27T23:06:26.717Z,6.87
2022-12-27T23:08:54.085Z,6.93
2022-12-27T23:11:23.045Z,6.97
2022-12-27T23:13:55.622Z,6.87
2022-12-27T23:16:22.285Z,7.04
2022-12-27T23:18:48.957Z,6.59
2022-12-27T23:21:20.325Z,6.91
2022-12-27T23:23:50.564Z,7.02
2022-12-27T23:26:19.201Z,7.14
2022-12-27T23:28:47.370Z,7.08
2022-12-27T23:31:14.775Z,7.01
2022-12-27T23:33:42.628Z,7.00
2022-12-27T23:36:10.716Z,6.98
2022-12-27T23:38:37.318Z,6.43
2022-12-27T23:41:07.055Z,6.93
2022-12-27T23:43:54.449Z,6.27
2022-12-27T23:46:28.476Z,6.87
2022-12-27T23:48:56.562Z,6.68
2022-12-27T23:51:23.728Z,6.85
2022-12-27T23:53:50.849Z,6.16
2022-12-27T23:56:18.798Z,6.81
2022-12-27T23:58:45.849Z,6.32
